Weather at Sölden Heliport

Public forecast

Using degrees Celsius for public forecast. Weather courtesy of forecast.io.

Closest aviation weather report (METAR) to Sölden Heliport

Closest report is Innsbruck Airport, 23.0 nm (42.7 km) NE. Retrieved 2021/06/21 10:20 UTC (0 seconds ago):

LOWI 211020Z 30004KT 210V010 9999 FEW065 28/16 Q1008 BECMG 09009KT

Closest aviation forecast (TAF) to Sölden Heliport

Closest forecast is Innsbruck Airport, 23.0 nm (42.7 km) NE. Retrieved 2021/06/21 06:21 UTC (4 hours ago):

TAF TAF LOWI 210515Z 2106/2206 27007KT 9999 FEW060 TX29/2113Z TN18/2124Z BECMG 2109/2111 10010KT TEMPO 2112/2122 SCT070 FEW070CB PROB30 TEMPO 2114/2120 VRB20G30KT TS BECMG 2118/2120 27006KT